KMFV/MFV METAR and TAF weather

Enter ICAO airport designator
Station Type Date Time Source
KMFV METAR 2022/01/26 07:35 UTC NOAA

KMFV 260735Z AUTO 36009G17KT 10SM SCT070 BKN080 M02/M03 A3020 RMK AO2 T10201026


Station Type Date Time Source
KMFV Decoded METAR 2022/01/26 07:35 UTC NOAA

Melfa / Accomack Airport, VA, United States (KMFV) 37-39N 075-46W
Jan 26, 2022 - 02:35 AM EST / 2022.01.26 0735 UTC
Wind: from the N (360 degrees) at 10 MPH (9 KT) gusting to 20 MPH (17 KT):0
Visibility: 10 mile(s):0
Sky conditions: mostly cloudy
Temperature: 28.4 F (-2.0 C)
Windchill: 19 F (-7 C):1
Dew Point: 27.3 F (-2.6 C)
Relative Humidity: 95%
Pressure (altimeter): 30.2 in. Hg (1022 hPa)
ob: KMFV 260735Z AUTO 36009G17KT 10SM SCT070 BKN080 M02/M03 A3020 RMK AO2 T10201026
cycle: 7

Station Type Date Time Source
KMFV TAF UTC NOAA

Error!

Example: see airport list